Time;durP1;ratioP1;P1;durP2;ratioP2;P2;SDS_P1;SDS_P2;PMS_P1;PMS_P2;Temp;Humidity;BMP_temperature;BMP_pressure;BME280_temperature;BME280_humidity;BME280_pressure;Samples;Min_cycle;Max_cycle;Signal;HPM_P1;HPM_P2
2023/01/15 00:02:16;;;;;;;;;;;;;;;;;;;;;
2023/01/15 00:05:02;;;;;;;;;;;;;;;;;;;;;
2023/01/15 00:07:51;;;;;;;;;;;;;;;;;;;;;
2023/01/15 00:13:44;;;;;;;;;0.00;0.00;;;;;11.28;76.25;100177.03;4954921;28;45385;-62
2023/01/15 00:16:44;;;;;;;;;;;;;;;;;;;;;
2023/01/15 00:19:14;;;;;;;;;0.00;0.00;;;;;11.14;75.73;100150.03;4950598;28;74445;-62
2023/01/15 00:21:50;;;;;;;;;;;;;;;;;;;;;
2023/01/15 00:28:01;;;;;;;;;;;;;;;;;;;;;
2023/01/15 00:30:43;;;;;;;;;;;;;;;;;;;;;
2023/01/15 00:33:24;;;;;;;;;;;;;;;;;;;;;
2023/01/15 00:36:27;;;;;;;;;;;;;;;;;;;;;
2023/01/15 00:39:50;;;;;;;;;;;;;;;;;;;;;
2023/01/15 00:42:52;;;;;;;;;;;;;;;;;;;;;
2023/01/15 00:45:53;;;;;;;;;;;;;;;;;;;;;
2023/01/15 00:48:49;;;;;;;;;0.00;0.00;;;;;11.26;75.75;100200.28;4947160;28;67944;-63
2023/01/15 00:54:27;;;;;;;;;;;;;;;;;;;;;
2023/01/15 00:57:23;;;;;;;;;;;;;;;;;;;;;
2023/01/15 01:00:10;;;;;;;;;1.00;0.00;;;;;11.09;75.93;100163.63;4961380;28;69981;-62
2023/01/15 01:03:22;;;;;;;;;0.00;0.00;;;;;11.26;75.95;100202.06;4950037;28;45579;-62
2023/01/15 01:06:58;;;;;;;;;;;;;;;;;;;;;
2023/01/15 01:09:46;;;;;;;;;;;;;;;;;;;;;
2023/01/15 01:12:25;;;;;;;;;0.00;0.00;;;;;11.27;75.20;100172.59;4960758;28;67246;-62
2023/01/15 01:15:31;;;;;;;;;;;;;;;;;;;;;
2023/01/15 01:18:04;;;;;;;;;;;;;;;;;;;;;
2023/01/15 01:20:53;;;;;;;;;1.00;1.00;;;;;11.06;75.59;100179.78;4960194;28;72885;-62
2023/01/15 01:23:36;;;;;;;;;;;;;;;;;;;;;
2023/01/15 01:27:00;;;;;;;;;;;;;;;;;;;;;
2023/01/15 01:30:14;;;;;;;;;;;;;;;;;;;;;
2023/01/15 01:32:55;;;;;;;;;;;;;;;;;;;;;
2023/01/15 01:35:51;;;;;;;;;;;;;;;;;;;;;
2023/01/15 01:38:52;;;;;;;;;;;;;;;;;;;;;
2023/01/15 01:41:45;;;;;;;;;0.00;0.00;;;;;10.97;74.94;100174.81;4958953;28;73790;-62
2023/01/15 01:44:42;;;;;;;;;;;;;;;;;;;;;
2023/01/15 01:47:48;;;;;;;;;;;;;;;;;;;;;
2023/01/15 01:50:53;;;;;;;;;1.00;0.00;;;;;11.06;74.41;100210.94;4951328;28;72809;-62
2023/01/15 01:57:13;;;;;;;;;;;;;;;;;;;;;
2023/01/15 02:00:04;;;;;;;;;;;;;;;;;;;;;
2023/01/15 02:03:23;;;;;;;;;;;;;;;;;;;;;
2023/01/15 02:09:27;;;;;;;;;;;;;;;;;;;;;
2023/01/15 02:16:19;;;;;;;;;;;;;;;;;;;;;
2023/01/15 02:19:27;;;;;;;;;;;;;;;;;;;;;
2023/01/15 02:22:12;;;;;;;;;;;;;;;;;;;;;
2023/01/15 02:25:13;;;;;;;;;0.00;0.00;;;;;10.89;74.95;100252.59;4959418;28;67898;-62
2023/01/15 02:31:49;;;;;;;;;;;;;;;;;;;;;
2023/01/15 02:41:17;;;;;;;;;;;;;;;;;;;;;
2023/01/15 02:47:07;;;;;;;;;0.00;0.00;;;;;10.63;73.95;100226.97;4944395;28;45550;-62
2023/01/15 02:50:15;;;;;;;;;0.50;0.00;;;;;10.52;74.37;100216.75;4958962;28;45593;-62
2023/01/15 02:53:14;;;;;;;;;;;;;;;;;;;;;
2023/01/15 02:56:07;;;;;;;;;;;;;;;;;;;;;
2023/01/15 02:58:47;;;;;;;;;0.00;0.00;;;;;10.71;74.57;100266.72;4962184;28;71884;-62
2023/01/15 03:01:44;;;;;;;;;0.00;0.00;;;;;10.54;74.28;100230.00;4960059;28;45317;-62
2023/01/15 03:05:07;;;;;;;;;;;;;;;;;;;;;
2023/01/15 03:08:23;;;;;;;;;0.00;0.00;;;;;10.71;74.17;100291.59;4942631;28;46799;-62
2023/01/15 03:11:04;;;;;;;;;;;;;;;;;;;;;
2023/01/15 03:14:07;;;;;;;;;;;;;;;;;;;;;
2023/01/15 03:17:19;;;;;;;;;1.25;0.00;;;;;10.66;73.40;100290.00;4956291;28;72914;-62
2023/01/15 03:20:12;;;;;;;;;;;;;;;;;;;;;
2023/01/15 03:23:22;;;;;;;;;;;;;;;;;;;;;
2023/01/15 03:26:02;;;;;;;;;;;;;;;;;;;;;
2023/01/15 03:28:40;;;;;;;;;2.50;0.00;;;;;10.42;73.76;100267.84;4958686;28;72840;-62
2023/01/15 03:31:29;;;;;;;;;;;;;;;;;;;;;
2023/01/15 03:34:08;;;;;;;;;;;;;;;;;;;;;
2023/01/15 03:36:48;;;;;;;;;;;;;;;;;;;;;
2023/01/15 03:39:44;;;;;;;;;;;;;;;;;;;;;
2023/01/15 03:46:09;;;;;;;;;;;;;;;;;;;;;
2023/01/15 03:49:12;;;;;;;;;;;;;;;;;;;;;
2023/01/15 03:52:11;;;;;;;;;0.00;0.00;;;;;10.54;73.29;100291.38;4945925;28;72687;-62
2023/01/15 03:55:19;;;;;;;;;;;;;;;;;;;;;
2023/01/15 03:58:36;;;;;;;;;;;;;;;;;;;;;
2023/01/15 04:01:41;;;;;;;;;;;;;;;;;;;;;
2023/01/15 04:04:34;;;;;;;;;;;;;;;;;;;;;
2023/01/15 04:07:40;;;;;;;;;;;;;;;;;;;;;
2023/01/15 04:17:06;;;;;;;;;;;;;;;;;;;;;
2023/01/15 04:20:14;;;;;;;;;;;;;;;;;;;;;
2023/01/15 04:23:19;;;;;;;;;;;;;;;;;;;;;
2023/01/15 04:26:22;;;;;;;;;;;;;;;;;;;;;
2023/01/15 04:39:06;;;;;;;;;;;;;;;;;;;;;
2023/01/15 04:45:19;;;;;;;;;;;;;;;;;;;;;
2023/01/15 04:48:16;;;;;;;;;;;;;;;;;;;;;
2023/01/15 04:55:01;;;;;;;;;;;;;;;;;;;;;
2023/01/15 04:58:40;;;;;;;;;;;;;;;;;;;;;
2023/01/15 05:01:06;;;;;;;;;;;;;;;;;;;;;
2023/01/15 05:04:05;;;;;;;;;;;;;;;;;;;;;
2023/01/15 05:07:08;;;;;;;;;;;;;;;;;;;;;
2023/01/15 05:09:55;;;;;;;;;;;;;;;;;;;;;
2023/01/15 05:16:12;;;;;;;;;0.00;0.00;;;;;9.92;69.51;100316.81;4936670;28;45443;-62
2023/01/15 05:19:01;;;;;;;;;;;;;;;;;;;;;
2023/01/15 05:22:01;;;;;;;;;;;;;;;;;;;;;
2023/01/15 05:24:47;;;;;;;;;;;;;;;;;;;;;
2023/01/15 05:27:46;;;;;;;;;;;;;;;;;;;;;
2023/01/15 05:33:45;;;;;;;;;1.00;0.00;;;;;9.79;68.91;100330.59;4941666;28;46103;-62
2023/01/15 05:36:42;;;;;;;;;0.00;0.00;;;;;9.63;68.70;100305.41;4961303;28;45400;-62
2023/01/15 05:42:28;;;;;;;;;;;;;;;;;;;;;
2023/01/15 05:45:01;;;;;;;;;0.00;0.00;;;;;9.74;68.38;100343.22;4952280;28;75809;-62
2023/01/15 05:53:50;;;;;;;;;0.00;0.00;;;;;9.63;68.51;100367.56;4952980;28;45590;-62
2023/01/15 05:56:29;;;;;;;;;0.00;0.00;;;;;9.27;68.36;100319.06;4949219;28;46589;-62
2023/01/15 05:59:26;;;;;;;;;;;;;;;;;;;;;
2023/01/15 06:02:45;;;;;;;;;;;;;;;;;;;;;
2023/01/15 06:05:10;;;;;;;;;0.50;0.00;;;;;9.64;68.48;100389.78;4954420;28;72919;-62
2023/01/15 06:07:35;;;;;;;;;0.00;0.00;;;;;9.64;68.78;100395.09;4961032;28;45417;-62
2023/01/15 06:10:01;;;;;;;;;0.00;0.00;;;;;9.66;68.41;100411.03;4962841;28;47007;-62
2023/01/15 06:12:26;;;;;;;;;0.00;0.00;;;;;9.64;67.85;100408.44;4960345;28;45398;-62
2023/01/15 06:14:51;;;;;;;;;1.00;0.00;;;;;9.62;68.26;100403.16;4959733;28;45524;-62
2023/01/15 06:17:17;;;;;;;;;0.00;0.00;;;;;9.68;68.10;100412.72;4960454;28;45369;-62
2023/01/15 06:19:42;;;;;;;;;0.50;0.00;;;;;9.69;67.66;100409.16;4960730;28;45730;-62
2023/01/15 06:22:07;;;;;;;;;0.50;0.00;;;;;9.70;68.14;100415.34;4960569;28;45518;-62
2023/01/15 06:24:32;;;;;;;;;1.25;0.00;;;;;9.70;67.64;100407.34;4959478;28;45480;-62
2023/01/15 06:26:58;;;;;;;;;0.00;0.00;;;;;9.68;67.90;100418.06;4959275;28;45402;-62
2023/01/15 06:29:23;;;;;;;;;0.00;0.00;;;;;9.56;67.41;100402.50;4960233;28;45399;-62
2023/01/15 06:31:49;;;;;;;;;0.50;0.00;;;;;9.58;67.59;100417.47;4960476;28;45376;-62
2023/01/15 06:34:14;;;;;;;;;0.00;0.00;;;;;9.61;67.62;100425.38;4960535;28;45550;-62
2023/01/15 06:36:39;;;;;;;;;0.00;0.00;;;;;9.60;67.60;100423.63;4960286;28;46000;-62
2023/01/15 06:39:05;;;;;;;;;0.75;0.00;;;;;9.60;67.74;100433.41;4969982;28;45420;-62
2023/01/15 06:47:21;;;;;;;;;0.00;0.00;;;;;9.54;67.02;100437.19;4952398;28;45736;-62
2023/01/15 06:49:48;;;;;;;;;0.00;0.00;;;;;9.49;67.59;100440.91;4948847;28;46244;-62
2023/01/15 06:52:14;;;;;;;;;0.00;0.00;;;;;9.49;67.17;100446.22;4960564;28;45330;-62
2023/01/15 06:54:39;;;;;;;;;0.00;0.00;;;;;9.50;67.71;100462.16;4958943;28;45491;-62
2023/01/15 06:57:05;;;;;;;;;0.00;0.00;;;;;9.51;67.52;100477.25;4960129;28;45447;-62
2023/01/15 06:59:30;;;;;;;;;0.00;0.00;;;;;9.48;67.42;100482.66;4963774;28;45399;-62
2023/01/15 07:01:56;;;;;;;;;0.00;0.00;;;;;9.41;67.55;100466.00;4959763;28;45401;-62
2023/01/15 07:04:21;;;;;;;;;0.00;0.00;;;;;9.40;67.02;100476.69;4960004;28;45449;-62
2023/01/15 07:06:46;;;;;;;;;0.00;0.00;;;;;9.43;67.00;100477.47;4959984;28;45318;-62
2023/01/15 07:09:12;;;;;;;;;0.00;0.00;;;;;9.41;67.18;100483.78;4962144;28;45482;-62
2023/01/15 07:11:48;;;;;;;;;0.25;0.00;;;;;9.38;67.51;100482.06;4960059;28;45650;-62
2023/01/15 07:14:18;;;;;;;;;1.00;0.00;;;;;9.40;67.72;100492.69;4947988;28;46492;-63
2023/01/15 07:16:44;;;;;;;;;0.00;0.00;;;;;9.37;67.30;100484.78;4958273;28;45387;-62
2023/01/15 07:19:09;;;;;;;;;0.00;0.00;;;;;9.40;66.93;100490.88;4958103;28;45818;-62
2023/01/15 07:21:34;;;;;;;;;0.00;0.00;;;;;9.37;66.90;100491.00;4959636;28;45283;-62
2023/01/15 07:24:00;;;;;;;;;0.75;0.00;;;;;9.31;67.52;100487.66;4960016;28;45519;-62
2023/01/15 07:26:26;;;;;;;;;0.00;0.00;;;;;9.36;67.11;100505.25;4958377;28;46158;-62
2023/01/15 07:28:52;;;;;;;;;0.00;0.00;;;;;9.36;67.11;100509.69;4959769;28;45582;-62
2023/01/15 07:31:17;;;;;;;;;0.00;0.00;;;;;9.34;67.21;100511.53;4959379;28;45434;-62
2023/01/15 07:33:43;;;;;;;;;0.00;0.00;;;;;9.33;67.16;100510.66;4959863;28;45595;-62
2023/01/15 07:36:08;;;;;;;;;0.00;0.00;;;;;9.34;67.13;100524.84;4958293;28;46190;-62
2023/01/15 07:38:34;;;;;;;;;1.75;1.00;;;;;9.29;67.07;100519.66;4977972;28;45546;-62
2023/01/15 07:51:57;;;;;;;;;0.00;0.00;;;;;9.16;67.46;100508.50;4963237;28;45357;-62
2023/01/15 07:54:22;;;;;;;;;1.00;1.00;;;;;9.20;67.56;100518.13;4962664;28;45373;-62
2023/01/15 07:56:50;;;;;;;;;1.00;0.00;;;;;9.23;67.62;100520.72;4962844;28;45469;-63
2023/01/15 07:59:15;;;;;;;;;0.00;0.00;;;;;9.20;67.90;100509.28;4966242;28;45325;-64
2023/01/15 08:01:41;;;;;;;;;0.75;0.00;;;;;9.21;67.94;100508.38;4962881;28;45528;-63
2023/01/15 08:04:06;;;;;;;;;0.00;0.00;;;;;9.23;68.28;100517.19;4959620;28;45498;-62
2023/01/15 08:06:31;;;;;;;;;1.50;0.00;;;;;9.24;67.97;100509.16;4957603;28;45830;-62
2023/01/15 08:08:57;;;;;;;;;0.00;0.00;;;;;9.18;68.05;100509.31;4962668;28;45330;-63
2023/01/15 08:16:52;;;;;;;;;1.00;1.00;;;;;9.21;68.13;100527.03;4962060;28;45488;-62
2023/01/15 08:19:17;;;;;;;;;0.00;0.00;;;;;9.16;68.30;100510.31;4954519;28;46742;-62
2023/01/15 08:21:42;;;;;;;;;0.00;0.00;;;;;9.24;68.20;100519.81;4959446;28;45382;-62
2023/01/15 08:24:07;;;;;;;;;0.00;0.00;;;;;9.26;68.22;100520.63;4962518;28;45291;-62
2023/01/15 08:26:33;;;;;;;;;0.00;0.00;;;;;9.23;68.25;100512.72;4960678;28;46479;-62
2023/01/15 08:28:58;;;;;;;;;1.00;0.00;;;;;9.23;68.11;100506.53;4961127;28;45410;-61
2023/01/15 08:31:23;;;;;;;;;0.00;0.00;;;;;9.23;67.60;100506.53;4961529;28;45416;-62
2023/01/15 08:33:49;;;;;;;;;0.00;0.00;;;;;9.24;67.67;100513.63;4962249;28;45452;-62
2023/01/15 08:36:15;;;;;;;;;0.00;0.00;;;;;9.29;68.20;100535.66;4962559;28;45598;-62
2023/01/15 08:38:41;;;;;;;;;1.00;0.00;;;;;9.28;67.47;100541.88;4966996;28;45323;-62
2023/01/15 08:41:06;;;;;;;;;0.50;0.00;;;;;9.24;67.63;100540.25;4972209;28;45449;-61
2023/01/15 08:43:32;;;;;;;;;0.00;0.00;;;;;9.28;67.30;100550.75;4968831;28;45499;-62
2023/01/15 08:46:02;;;;;;;;;0.00;0.00;;;;;9.32;67.81;100548.00;4958940;28;46003;-62
2023/01/15 08:48:29;;;;;;;;;0.00;0.00;;;;;9.31;67.50;100541.81;4958878;28;45361;-61
2023/01/15 08:50:55;;;;;;;;;0.00;0.00;;;;;9.22;67.55;100516.31;4949192;28;45576;-62
2023/01/15 08:53:21;;;;;;;;;0.75;0.00;;;;;9.19;67.47;100515.56;4961935;28;45587;-62
2023/01/15 08:55:47;;;;;;;;;0.00;0.00;;;;;9.23;67.73;100512.72;4961006;28;46510;-62
2023/01/15 08:58:13;;;;;;;;;0.00;0.00;;;;;9.23;67.72;100514.53;4965520;28;45685;-62
2023/01/15 09:00:38;;;;;;;;;1.50;0.00;;;;;9.23;67.41;100506.53;4959712;28;45390;-62
2023/01/15 09:03:04;;;;;;;;;0.00;0.00;;;;;9.19;67.79;100511.09;4961038;28;45586;-62
2023/01/15 09:05:29;;;;;;;;;1.50;0.00;;;;;9.19;67.41;100513.75;4961062;28;46143;-62
2023/01/15 09:07:55;;;;;;;;;0.50;0.00;;;;;9.18;67.57;100509.31;4959249;28;45337;-62
2023/01/15 09:10:21;;;;;;;;;0.00;0.00;;;;;9.08;67.37;100497.22;4967188;28;45397;-62
2023/01/15 09:12:46;;;;;;;;;0.00;0.00;;;;;9.13;67.17;100515.72;4961675;28;45603;-62
2023/01/15 09:15:12;;;;;;;;;0.00;0.00;;;;;9.17;67.78;100515.59;4961518;28;45421;-62
2023/01/15 09:17:39;;;;;;;;;0.25;0.00;;;;;9.18;67.61;100519.97;4959020;28;45627;-62
2023/01/15 09:20:06;;;;;;;;;1.00;0.00;;;;;9.19;67.30;100511.09;4956005;28;45454;-62
2023/01/15 09:22:32;;;;;;;;;0.00;0.00;;;;;9.25;66.94;100531.31;4961328;28;45467;-62
2023/01/15 09:24:58;;;;;;;;;0.00;0.00;;;;;9.22;66.84;100528.75;4960271;28;45437;-62
2023/01/15 09:27:23;;;;;;;;;0.00;0.00;;;;;9.22;66.39;100516.31;4959497;28;45393;-62
2023/01/15 09:29:49;;;;;;;;;1.50;0.00;;;;;9.26;66.76;100531.28;4961472;28;45564;-62
2023/01/15 09:32:14;;;;;;;;;1.00;0.00;;;;;9.27;66.82;100530.38;4960929;28;45417;-62
2023/01/15 09:34:39;;;;;;;;;1.00;1.00;;;;;9.33;66.69;100534.63;4961181;28;45262;-62
2023/01/15 09:37:05;;;;;;;;;2.50;0.00;;;;;9.36;66.18;100545.19;4961284;28;45394;-62
2023/01/15 09:39:30;;;;;;;;;0.00;0.00;;;;;9.40;66.50;100543.31;4961306;28;45384;-62
2023/01/15 09:42:04;;;;;;;;;0.50;0.00;;;;;9.34;66.48;100535.50;4960027;28;45484;-62
2023/01/15 09:44:47;;;;;;;;;2.75;1.00;;;;;9.27;66.30;100526.81;4958830;28;45455;-62
2023/01/15 09:47:18;;;;;;;;;0.00;0.00;;;;;9.38;66.50;100532.69;4960914;28;45571;-62
2023/01/15 09:50:32;;;;;;;;;0.00;0.00;;;;;9.39;66.39;100544.25;4961428;28;45401;-62
2023/01/15 09:53:21;;;;;;;;;0.00;0.00;;;;;9.45;66.20;100549.38;4949466;28;45483;-62
2023/01/15 09:55:50;;;;;;;;;0.00;0.00;;;;;9.46;65.62;100551.97;4958647;28;45389;-62
2023/01/15 09:58:19;;;;;;;;;0.25;0.00;;;;;9.45;66.05;100562.69;4963594;28;46801;-63
2023/01/15 10:00:48;;;;;;;;;0.00;0.00;;;;;9.48;66.13;100567.06;4961780;28;45566;-63
2023/01/15 10:03:28;;;;;;;;;1.00;0.25;;;;;9.46;65.54;100559.13;4960595;28;45709;-62
2023/01/15 10:06:15;;;;;;;;;2.50;0.75;;;;;9.39;66.15;100560.22;4963445;28;45498;-63
2023/01/15 10:08:45;;;;;;;;;2.25;0.50;;;;;9.41;65.78;100551.25;4953224;28;45413;-63
2023/01/15 10:11:13;;;;;;;;;1.00;0.25;;;;;9.44;66.32;100551.16;4964054;28;45493;-63
2023/01/15 10:14:24;;;;;;;;;1.00;0.00;;;;;9.48;66.35;100562.59;4960843;28;45277;-62
2023/01/15 10:16:49;;;;;;;;;1.00;0.00;;;;;9.50;65.26;100570.53;4908650;28;45530;-63
2023/01/15 10:19:15;;;;;;;;;0.00;0.00;;;;;9.44;65.73;100548.50;4918979;28;45421;-62
2023/01/15 10:21:56;;;;;;;;;0.00;0.00;;;;;9.38;65.29;100532.69;4940247;28;45405;-62
2023/01/15 10:24:38;;;;;;;;;0.50;0.50;;;;;9.59;65.02;100544.50;4959261;28;45379;-62
2023/01/15 10:27:16;;;;;;;;;0.00;0.00;;;;;9.60;64.89;100548.00;4959304;28;45478;-62
2023/01/15 10:30:05;;;;;;;;;0.00;0.00;;;;;9.61;65.12;100553.31;4948588;28;45405;-62
2023/01/15 10:32:57;;;;;;;;;0.50;0.00;;;;;9.63;65.38;100551.44;4958030;28;45400;-62
2023/01/15 10:36:06;;;;;;;;;1.00;0.25;;;;;9.68;65.26;100542.47;4960177;28;45521;-62
2023/01/15 10:39:09;;;;;;;;;0.00;0.00;;;;;9.69;65.60;100538.84;4960067;28;45439;-62
2023/01/15 10:41:53;;;;;;;;;2.00;0.00;;;;;9.75;65.26;100546.66;4960240;28;45588;-62
2023/01/15 10:44:30;;;;;;;;;0.00;0.00;;;;;9.70;65.62;100548.59;4963621;28;45469;-62
2023/01/15 10:47:00;;;;;;;;;0.00;0.00;;;;;9.77;64.88;100544.81;4958752;28;45758;-61
2023/01/15 10:49:29;;;;;;;;;0.50;0.50;;;;;9.81;64.88;100543.81;4958373;28;45417;-63
2023/01/15 10:52:01;;;;;;;;;0.00;0.00;;;;;9.73;64.70;100524.53;4956480;28;45588;-62
2023/01/15 10:54:46;;;;;;;;;3.50;0.75;;;;;9.60;64.80;100534.69;4956764;28;45688;-66
2023/01/15 10:57:22;;;;;;;;;0.00;0.00;;;;;9.83;64.95;100545.47;4955775;28;45701;-62
2023/01/15 10:59:53;;;;;;;;;0.25;0.00;;;;;9.87;65.23;100550.72;4960428;28;47088;-60
2023/01/15 11:02:28;;;;;;;;;0.00;0.00;;;;;9.87;65.00;100545.38;4954806;28;45746;-63
2023/01/15 11:04:54;;;;;;;;;1.00;0.00;;;;;9.83;64.51;100525.97;4954636;28;45468;-65
2023/01/15 11:07:37;;;;;;;;;2.00;1.00;;;;;9.77;64.47;100521.72;4950340;28;45845;-65
2023/01/15 11:10:05;;;;;;;;;0.75;0.00;;;;;9.80;64.96;100515.38;4963071;28;45742;-65
2023/01/15 11:21:12;;;;;;;;;0.00;0.00;;;;;9.85;64.00;100501.91;4955623;28;45576;-63
2023/01/15 11:23:37;;;;;;;;;1.75;0.75;;;;;9.91;64.07;100502.59;4959042;28;45678;-62
2023/01/15 11:26:03;;;;;;;;;1.50;0.00;;;;;9.96;64.01;100505.97;4953995;28;45587;-62
2023/01/15 11:28:42;;;;;;;;;1.00;1.00;;;;;9.97;63.76;100510.38;4954623;28;45512;-62
2023/01/15 11:31:09;;;;;;;;;0.00;0.00;;;;;10.04;63.93;100516.38;4952263;28;45725;-62
2023/01/15 11:33:36;;;;;;;;;0.75;0.00;;;;;9.99;63.32;100505.88;4956319;28;45482;-62
2023/01/15 11:36:05;;;;;;;;;0.00;0.00;;;;;10.02;63.64;100519.09;4954758;28;45685;-62
2023/01/15 11:38:45;;;;;;;;;0.75;0.50;;;;;10.08;63.44;100499.34;4955270;28;45742;-63
2023/01/15 11:52:38;;;;;;;;;0.00;0.00;;;;;10.07;62.74;100494.91;4954230;28;45927;-62
2023/01/15 11:55:11;;;;;;;;;3.00;0.00;;;;;10.15;62.72;100490.19;4955995;28;45914;-61
2023/01/15 11:57:38;;;;;;;;;0.75;0.00;;;;;10.05;62.73;100482.56;4956913;28;45709;-62
2023/01/15 12:00:05;;;;;;;;;1.00;0.25;;;;;10.25;62.61;100509.44;4952089;28;45662;-62
2023/01/15 12:02:47;;;;;;;;;0.00;0.00;;;;;10.18;62.91;100491.91;4952154;28;46748;-62
2023/01/15 12:05:21;;;;;;;;;1.00;1.00;;;;;10.24;62.56;100505.03;4953280;28;45772;-62
2023/01/15 12:07:52;;;;;;;;;0.00;0.00;;;;;10.19;61.41;100475.84;4954758;28;45553;-62
2023/01/15 12:13:42;;;;;;;;;2.50;1.00;;;;;10.36;61.17;100490.44;4952648;28;45710;-62
2023/01/15 12:16:20;;;;;;;;;0.00;0.00;;;;;10.35;61.64;100478.00;4954247;28;45559;-61
2023/01/15 12:19:18;;;;;;;;;1.00;0.00;;;;;10.29;61.93;100457.72;4945704;28;45528;-62
2023/01/15 12:21:50;;;;;;;;;0.00;0.00;;;;;10.37;61.65;100468.13;4952796;28;45609;-62
2023/01/15 12:24:30;;;;;;;;;0.00;0.00;;;;;10.38;60.81;100457.41;4954945;28;47569;-63
2023/01/15 12:27:29;;;;;;;;;0.25;0.00;;;;;10.32;60.98;100438.09;4952808;28;45907;-61
2023/01/15 12:30:12;;;;;;;;;1.25;0.25;;;;;10.44;61.56;100447.44;4957795;28;45810;-61
2023/01/15 12:32:45;;;;;;;;;0.00;0.00;;;;;10.46;61.45;100438.47;4957593;28;45727;-61
2023/01/15 12:35:30;;;;;;;;;0.00;0.00;;;;;10.50;61.32;100441.88;4956336;28;47329;-62
2023/01/15 12:38:03;;;;;;;;;2.00;1.00;;;;;10.50;61.86;100437.41;4956145;28;45568;-61
2023/01/15 12:41:00;;;;;;;;;0.00;0.00;;;;;10.58;60.99;100439.81;4956243;28;45766;-61
2023/01/15 12:46:18;;;;;;;;;1.00;0.00;;;;;10.50;60.31;100425.88;4952181;28;46239;-61
2023/01/15 12:48:56;;;;;;;;;0.25;0.00;;;;;10.55;59.97;100443.44;4954681;28;46037;-61
2023/01/15 12:51:31;;;;;;;;;0.75;0.00;;;;;10.57;60.10;100446.94;4952224;28;45846;-61
2023/01/15 12:54:04;;;;;;;;;2.00;0.00;;;;;10.58;59.75;100442.47;4957115;28;45583;-61
2023/01/15 12:56:59;;;;;;;;;1.00;1.00;;;;;10.59;60.00;100440.66;4958192;28;47254;-66
2023/01/15 12:59:33;;;;;;;;;0.00;0.00;;;;;10.54;59.82;100432.81;4985149;28;45744;-61
2023/01/15 13:02:03;;;;;;;;;1.50;0.00;;;;;10.57;59.70;100435.38;4958041;28;45609;-62
2023/01/15 13:04:43;;;;;;;;;0.00;0.00;;;;;10.51;59.97;100409.81;4958249;28;45538;-62
2023/01/15 13:07:36;;;;;;;;;0.00;0.00;;;;;10.55;59.81;100413.22;4956373;28;46276;-62
2023/01/15 13:10:25;;;;;;;;;1.00;1.00;;;;;10.64;59.45;100406.66;4966985;28;45801;-62
2023/01/15 13:12:52;;;;;;;;;1.00;1.00;;;;;10.58;59.62;100402.44;4956588;28;45868;-62
2023/01/15 13:15:27;;;;;;;;;0.00;0.00;;;;;10.68;59.90;100408.31;4957351;28;45584;-62
2023/01/15 13:18:11;;;;;;;;;0.00;0.00;;;;;10.69;59.77;100400.25;4952442;28;45868;-63
2023/01/15 13:20:44;;;;;;;;;0.25;0.00;;;;;10.71;59.47;100408.19;4985726;28;46130;-62
2023/01/15 13:23:40;;;;;;;;;0.00;0.00;;;;;10.69;58.76;100400.25;4989078;28;45425;-63
2023/01/15 13:26:17;;;;;;;;;1.00;0.00;;;;;10.60;57.41;100389.91;4947420;28;45500;-62
2023/01/15 13:29:20;;;;;;;;;0.25;0.00;;;;;10.67;58.60;100394.06;4957340;28;46087;-63
2023/01/15 13:31:58;;;;;;;;;0.00;0.00;;;;;10.69;58.38;100378.00;4956160;28;45645;-63
2023/01/15 13:34:58;;;;;;;;;0.50;0.00;;;;;10.71;58.31;100373.47;4957705;28;45488;-63
2023/01/15 13:37:42;;;;;;;;;0.00;0.00;;;;;10.70;58.39;100377.06;4918384;28;46995;-63
2023/01/15 13:40:23;;;;;;;;;1.50;0.00;;;;;10.61;58.58;100374.75;4956372;28;47341;-62
2023/01/15 13:42:51;;;;;;;;;2.00;1.00;;;;;10.67;58.74;100372.72;4957361;28;45507;-62
2023/01/15 13:45:36;;;;;;;;;0.00;0.00;;;;;10.80;58.50;100390.94;4957000;28;45473;-61
2023/01/15 13:48:14;;;;;;;;;1.00;0.00;;;;;10.83;58.43;100407.72;4957195;28;45513;-61
2023/01/15 13:50:49;;;;;;;;;0.00;0.00;;;;;10.74;57.89;100386.69;4955420;28;47568;-61
2023/01/15 13:53:26;;;;;;;;;0.00;0.00;;;;;10.78;58.08;100390.13;4961183;28;46072;-61
2023/01/15 13:56:00;;;;;;;;;0.50;0.50;;;;;10.82;57.93;100397.09;4956981;28;45385;-61
2023/01/15 13:58:31;;;;;;;;;0.00;0.00;;;;;10.80;57.51;100398.94;4963695;28;45867;-61
2023/01/15 14:01:16;;;;;;;;;0.25;0.00;;;;;10.80;58.14;100401.63;4955958;28;45877;-61
2023/01/15 14:03:58;;;;;;;;;0.00;0.00;;;;;10.72;58.10;100378.72;4956589;28;45845;-62
2023/01/15 14:06:50;;;;;;;;;2.50;0.00;;;;;10.79;58.35;100391.84;4954235;28;45656;-62
2023/01/15 14:09:21;;;;;;;;;0.25;0.00;;;;;10.83;57.64;100378.34;4951290;28;45625;-62
2023/01/15 14:12:14;;;;;;;;;1.00;1.00;;;;;10.85;57.93;100379.13;4955906;28;45755;-62
2023/01/15 14:14:58;;;;;;;;;1.00;0.00;;;;;10.87;58.05;100371.94;4950549;28;45814;-62
2023/01/15 14:17:32;;;;;;;;;0.00;0.00;;;;;10.88;58.13;100378.16;4956206;28;45642;-62
2023/01/15 14:20:12;;;;;;;;;0.75;0.25;;;;;10.84;57.82;100371.19;4956326;28;45547;-62
2023/01/15 14:23:04;;;;;;;;;0.00;0.00;;;;;10.88;58.37;100372.81;4956299;28;45452;-61
2023/01/15 14:25:47;;;;;;;;;0.00;0.00;;;;;10.81;58.00;100365.97;4965488;28;45444;-62
2023/01/15 14:28:38;;;;;;;;;1.00;0.00;;;;;10.88;58.19;100379.03;4958133;28;45948;-61
2023/01/15 14:31:19;;;;;;;;;1.00;0.00;;;;;10.90;57.91;100373.63;4935869;28;45771;-61
2023/01/15 14:33:55;;;;;;;;;1.00;0.00;;;;;10.88;58.35;100368.34;4952099;28;45431;-62
2023/01/15 14:36:33;;;;;;;;;2.00;0.75;;;;;10.85;58.10;100363.13;4956793;28;45515;-62
2023/01/15 14:39:01;;;;;;;;;0.00;0.00;;;;;10.90;58.18;100362.94;4958025;28;45448;-62
2023/01/15 14:41:31;;;;;;;;;2.00;1.00;;;;;10.86;58.01;100356.84;4959508;28;45604;-62
2023/01/15 14:43:59;;;;;;;;;0.00;0.00;;;;;10.78;57.40;100347.41;4959288;28;45453;-62
2023/01/15 14:46:31;;;;;;;;;0.00;0.00;;;;;10.88;58.13;100363.00;4959208;28;45266;-62
2023/01/15 14:48:56;;;;;;;;;2.00;0.00;;;;;10.80;58.15;100341.06;4959676;28;45382;-62
2023/01/15 14:51:48;;;;;;;;;0.00;0.00;;;;;10.77;58.49;100335.00;4960588;28;45530;-62
2023/01/15 14:54:18;;;;;;;;;1.50;0.00;;;;;10.84;58.14;100345.38;4958403;28;47146;-62
2023/01/15 14:56:49;;;;;;;;;0.25;0.00;;;;;10.85;58.45;100347.09;4956019;28;45373;-62
2023/01/15 14:59:39;;;;;;;;;0.75;0.00;;;;;10.90;58.44;100344.25;4965095;28;45403;-62
2023/01/15 15:02:15;;;;;;;;;2.25;1.00;;;;;10.92;58.57;100339.72;4951221;28;45689;-62
2023/01/15 15:04:47;;;;;;;;;0.00;0.00;;;;;10.91;58.60;100352.19;4974609;28;47103;-62
2023/01/15 15:07:17;;;;;;;;;0.00;0.00;;;;;10.83;58.07;100338.28;4959372;28;45325;-62
2023/01/15 15:10:11;;;;;;;;;0.00;0.00;;;;;10.89;58.67;100338.03;4967975;28;45436;-61
2023/01/15 15:12:38;;;;;;;;;0.00;0.00;;;;;10.92;58.29;100337.91;4951487;28;45556;-62
2023/01/15 15:15:24;;;;;;;;;1.00;0.00;;;;;10.88;58.54;100322.09;4958918;28;45457;-62
2023/01/15 15:18:04;;;;;;;;;1.00;1.00;;;;;10.95;58.09;100336.91;4959257;28;45336;-62
2023/01/15 15:20:43;;;;;;;;;0.00;0.00;;;;;10.95;58.22;100336.91;4954905;28;45379;-62
2023/01/15 15:23:47;;;;;;;;;0.75;0.75;;;;;10.96;58.01;100319.97;4958698;28;45492;-62
2023/01/15 15:26:24;;;;;;;;;1.00;0.00;;;;;10.97;58.10;100319.03;4971128;28;46984;-62
2023/01/15 15:29:08;;;;;;;;;0.75;0.00;;;;;10.96;58.05;100311.97;4958842;28;45751;-62
2023/01/15 15:31:39;;;;;;;;;1.00;0.25;;;;;10.91;58.35;100305.94;4954309;28;45295;-62
2023/01/15 15:34:13;;;;;;;;;1.00;1.00;;;;;10.93;58.28;100306.75;4959046;28;45584;-62
2023/01/15 15:36:39;;;;;;;;;2.00;1.00;;;;;10.88;58.30;100295.38;4959307;28;46227;-62
2023/01/15 15:39:21;;;;;;;;;1.50;0.50;;;;;10.91;58.83;100297.94;4958844;28;45576;-61
2023/01/15 15:50:27;;;;;;;;;1.00;0.00;;;;;10.83;58.29;100263.53;4959458;28;45346;-62
2023/01/15 15:52:54;;;;;;;;;1.00;0.00;;;;;10.89;58.38;100281.97;4959110;28;45283;-61
2023/01/15 15:55:21;;;;;;;;;1.00;1.00;;;;;10.86;58.39;100266.06;4959510;28;45325;-62
2023/01/15 15:57:52;;;;;;;;;0.25;0.25;;;;;10.67;58.33;100233.91;4961450;28;46284;-61
2023/01/15 16:00:27;;;;;;;;;1.75;0.50;;;;;10.67;58.58;100239.25;4958678;28;45415;-61
2023/01/15 16:02:52;;;;;;;;;1.75;1.00;;;;;10.82;58.12;100256.44;4961895;28;45484;-61
2023/01/15 16:05:17;;;;;;;;;2.00;0.25;;;;;10.86;58.71;100254.50;4962936;28;45393;-62
2023/01/15 16:07:43;;;;;;;;;3.25;0.75;;;;;10.86;58.94;100252.72;4960818;28;47191;-62
2023/01/15 16:10:15;;;;;;;;;2.50;0.00;;;;;10.91;58.50;100253.41;4970453;28;45349;-61
2023/01/15 16:12:48;;;;;;;;;2.25;0.00;;;;;10.82;59.03;100235.06;4958644;28;45560;-62
2023/01/15 16:15:25;;;;;;;;;2.00;0.00;;;;;10.88;59.02;100255.34;4962522;28;45847;-62
2023/01/15 16:17:52;;;;;;;;;0.00;0.00;;;;;10.86;59.16;100247.38;4959447;28;45582;-62
2023/01/15 16:20:19;;;;;;;;;0.00;0.00;;;;;10.68;58.40;100218.78;4962592;28;45673;-62
2023/01/15 16:22:56;;;;;;;;;1.00;1.00;;;;;10.80;58.82;100236.09;4960500;28;45516;-62
2023/01/15 16:25:59;;;;;;;;;0.00;0.00;;;;;10.82;59.03;100243.09;4961239;28;46069;-62